sensor_id;sensor_type;location;lat;lon;timestamp;pressure;altitude;pressure_sealevel;temperature
11926;BMP180;6022;48.768;18.608;2023-03-11T00:00:51;96130.59;;;8.95
11926;BMP180;6022;48.768;18.608;2023-03-11T00:03:20;96134.69;;;8.96
11926;BMP180;6022;48.768;18.608;2023-03-11T00:05:52;96133.25;;;8.93
11926;BMP180;6022;48.768;18.608;2023-03-11T00:08:23;96136.81;;;8.91
11926;BMP180;6022;48.768;18.608;2023-03-11T00:10:54;96140.97;;;8.92
11926;BMP180;6022;48.768;18.608;2023-03-11T00:13:23;96141.63;;;8.94
11926;BMP180;6022;48.768;18.608;2023-03-11T00:15:54;96149.97;;;8.94
11926;BMP180;6022;48.768;18.608;2023-03-11T00:18:28;96152.91;;;8.99
11926;BMP180;6022;48.768;18.608;2023-03-11T00:20:59;96157.00;;;9.00
11926;BMP180;6022;48.768;18.608;2023-03-11T00:23:27;96159.97;;;8.96
11926;BMP180;6022;48.768;18.608;2023-03-11T00:25:55;96165.00;;;8.96
11926;BMP180;6022;48.768;18.608;2023-03-11T00:28:23;96170.34;;;8.93
11926;BMP180;6022;48.768;18.608;2023-03-11T00:30:53;96170.38;;;8.83
11926;BMP180;6022;48.768;18.608;2023-03-11T00:33:21;96174.97;;;8.80
11926;BMP180;6022;48.768;18.608;2023-03-11T00:35:50;96168.06;;;8.72
11926;BMP180;6022;48.768;18.608;2023-03-11T00:38:18;96184.84;;;8.64
11926;BMP180;6022;48.768;18.608;2023-03-11T00:41:03;96184.31;;;8.61
11926;BMP180;6022;48.768;18.608;2023-03-11T00:43:31;96189.81;;;8.56
11926;BMP180;6022;48.768;18.608;2023-03-11T00:49:05;96212.59;;;8.37
11926;BMP180;6022;48.768;18.608;2023-03-11T00:51:33;96224.72;;;8.25
11926;BMP180;6022;48.768;18.608;2023-03-11T00:54:01;96241.84;;;8.02
11926;BMP180;6022;48.768;18.608;2023-03-11T00:56:28;96259.38;;;7.76
11926;BMP180;6022;48.768;18.608;2023-03-11T00:58:57;96264.97;;;7.79
11926;BMP180;6022;48.768;18.608;2023-03-11T01:01:25;96234.94;;;7.76
11926;BMP180;6022;48.768;18.608;2023-03-11T01:03:52;96223.16;;;7.86
11926;BMP180;6022;48.768;18.608;2023-03-11T01:06:20;96194.19;;;7.90
11926;BMP180;6022;48.768;18.608;2023-03-11T01:08:49;96194.56;;;7.95
11926;BMP180;6022;48.768;18.608;2023-03-11T01:11:17;96199.50;;;7.87
11926;BMP180;6022;48.768;18.608;2023-03-11T01:13:44;96210.91;;;7.82
11926;BMP180;6022;48.768;18.608;2023-03-11T01:16:12;96228.03;;;7.78
11926;BMP180;6022;48.768;18.608;2023-03-11T01:18:40;96221.41;;;7.77
11926;BMP180;6022;48.768;18.608;2023-03-11T01:21:08;96214.63;;;7.87
11926;BMP180;6022;48.768;18.608;2023-03-11T01:23:35;96208.13;;;7.85
11926;BMP180;6022;48.768;18.608;2023-03-11T01:26:03;96204.41;;;7.89
11926;BMP180;6022;48.768;18.608;2023-03-11T01:28:30;96205.31;;;7.97
11926;BMP180;6022;48.768;18.608;2023-03-11T01:30:58;96207.84;;;7.97
11926;BMP180;6022;48.768;18.608;2023-03-11T01:33:26;96206.28;;;7.87
11926;BMP180;6022;48.768;18.608;2023-03-11T01:35:55;96183.69;;;7.76
11926;BMP180;6022;48.768;18.608;2023-03-11T01:38:23;96184.22;;;7.79
11926;BMP180;6022;48.768;18.608;2023-03-11T01:40:51;96177.56;;;7.78
11926;BMP180;6022;48.768;18.608;2023-03-11T01:43:49;96181.28;;;7.84
11926;BMP180;6022;48.768;18.608;2023-03-11T01:46:30;96201.75;;;7.90
11926;BMP180;6022;48.768;18.608;2023-03-11T01:49:03;96200.16;;;7.89
11926;BMP180;6022;48.768;18.608;2023-03-11T01:51:37;96185.28;;;7.86
11926;BMP180;6022;48.768;18.608;2023-03-11T01:54:12;96183.56;;;7.87
11926;BMP180;6022;48.768;18.608;2023-03-11T01:56:41;96188.63;;;7.87
11926;BMP180;6022;48.768;18.608;2023-03-11T01:59:14;96181.06;;;7.77
11926;BMP180;6022;48.768;18.608;2023-03-11T02:02:22;96177.97;;;7.83
11926;BMP180;6022;48.768;18.608;2023-03-11T02:04:54;96189.00;;;7.82
11926;BMP180;6022;48.768;18.608;2023-03-11T02:07:23;96193.00;;;7.75
11926;BMP180;6022;48.768;18.608;2023-03-11T02:09:50;96191.81;;;7.79
11926;BMP180;6022;48.768;18.608;2023-03-11T02:12:19;96185.81;;;7.80
11926;BMP180;6022;48.768;18.608;2023-03-11T02:14:50;96184.91;;;7.81
11926;BMP180;6022;48.768;18.608;2023-03-11T02:17:21;96184.59;;;7.84
11926;BMP180;6022;48.768;18.608;2023-03-11T02:20:15;96179.44;;;7.86
11926;BMP180;6022;48.768;18.608;2023-03-11T02:22:47;96185.97;;;7.88
11926;BMP180;6022;48.768;18.608;2023-03-11T02:25:40;96167.47;;;7.88
11926;BMP180;6022;48.768;18.608;2023-03-11T02:28:12;96163.50;;;7.85
11926;BMP180;6022;48.768;18.608;2023-03-11T02:30:43;96164.72;;;7.72
11926;BMP180;6022;48.768;18.608;2023-03-11T02:33:13;96157.69;;;7.75
11926;BMP180;6022;48.768;18.608;2023-03-11T02:35:41;96155.81;;;7.77
11926;BMP180;6022;48.768;18.608;2023-03-11T02:38:09;96147.59;;;7.75
11926;BMP180;6022;48.768;18.608;2023-03-11T02:43:37;96154.50;;;7.64
11926;BMP180;6022;48.768;18.608;2023-03-11T02:46:09;96152.66;;;7.66
11926;BMP180;6022;48.768;18.608;2023-03-11T02:48:38;96153.31;;;7.58
11926;BMP180;6022;48.768;18.608;2023-03-11T02:51:06;96149.59;;;7.53
11926;BMP180;6022;48.768;18.608;2023-03-11T02:53:49;96154.22;;;7.57
11926;BMP180;6022;48.768;18.608;2023-03-11T02:56:17;96163.53;;;7.57
11926;BMP180;6022;48.768;18.608;2023-03-11T02:58:45;96166.59;;;7.60
11926;BMP180;6022;48.768;18.608;2023-03-11T03:01:13;96163.13;;;7.61
11926;BMP180;6022;48.768;18.608;2023-03-11T03:03:40;96167.13;;;7.64
11926;BMP180;6022;48.768;18.608;2023-03-11T03:06:08;96166.97;;;7.65
11926;BMP180;6022;48.768;18.608;2023-03-11T03:08:35;96155.81;;;7.68
11926;BMP180;6022;48.768;18.608;2023-03-11T03:11:03;96154.63;;;7.62
11926;BMP180;6022;48.768;18.608;2023-03-11T03:13:31;96158.91;;;7.53
11926;BMP180;6022;48.768;18.608;2023-03-11T03:15:59;96155.44;;;7.53
11926;BMP180;6022;48.768;18.608;2023-03-11T03:18:27;96147.59;;;7.56
11926;BMP180;6022;48.768;18.608;2023-03-11T03:20:55;96150.78;;;7.58
11926;BMP180;6022;48.768;18.608;2023-03-11T03:23:22;96140.97;;;7.55
11926;BMP180;6022;48.768;18.608;2023-03-11T03:25:50;96146.78;;;7.56
11926;BMP180;6022;48.768;18.608;2023-03-11T03:28:18;96154.22;;;7.57
11926;BMP180;6022;48.768;18.608;2023-03-11T03:30:46;96146.28;;;7.43
11926;BMP180;6022;48.768;18.608;2023-03-11T03:33:13;96141.09;;;7.35
11926;BMP180;6022;48.768;18.608;2023-03-11T03:35:43;96124.75;;;7.30
11926;BMP180;6022;48.768;18.608;2023-03-11T03:38:11;96135.13;;;7.27
11926;BMP180;6022;48.768;18.608;2023-03-11T03:40:45;96158.84;;;7.06
11926;BMP180;6022;48.768;18.608;2023-03-11T03:43:14;96155.19;;;6.71
11926;BMP180;6022;48.768;18.608;2023-03-11T03:45:41;96188.59;;;6.43
11926;BMP180;6022;48.768;18.608;2023-03-11T03:48:09;96191.47;;;6.29
11926;BMP180;6022;48.768;18.608;2023-03-11T03:50:39;96204.78;;;6.20
11926;BMP180;6022;48.768;18.608;2023-03-11T03:53:07;96212.03;;;5.94
11926;BMP180;6022;48.768;18.608;2023-03-11T03:55:35;96232.94;;;5.63
11926;BMP180;6022;48.768;18.608;2023-03-11T03:58:02;96204.22;;;5.45
11926;BMP180;6022;48.768;18.608;2023-03-11T04:00:30;96219.50;;;5.53
11926;BMP180;6022;48.768;18.608;2023-03-11T04:02:58;96213.56;;;5.54
11926;BMP180;6022;48.768;18.608;2023-03-11T04:05:26;96208.34;;;5.66
11926;BMP180;6022;48.768;18.608;2023-03-11T04:07:54;96209.97;;;5.67
11926;BMP180;6022;48.768;18.608;2023-03-11T04:10:21;96215.22;;;5.64
11926;BMP180;6022;48.768;18.608;2023-03-11T04:12:49;96226.06;;;5.65
11926;BMP180;6022;48.768;18.608;2023-03-11T04:15:17;96239.78;;;5.61
11926;BMP180;6022;48.768;18.608;2023-03-11T04:17:44;96232.25;;;5.61
11926;BMP180;6022;48.768;18.608;2023-03-11T04:20:12;96246.50;;;5.40
11926;BMP180;6022;48.768;18.608;2023-03-11T04:22:39;96247.19;;;5.31
11926;BMP180;6022;48.768;18.608;2023-03-11T04:25:07;96235.34;;;5.23
11926;BMP180;6022;48.768;18.608;2023-03-11T04:27:35;96236.28;;;5.11
11926;BMP180;6022;48.768;18.608;2023-03-11T04:30:05;96245.88;;;5.06
11926;BMP180;6022;48.768;18.608;2023-03-11T04:32:33;96225.69;;;4.96
11926;BMP180;6022;48.768;18.608;2023-03-11T04:35:00;96251.81;;;5.16
11926;BMP180;6022;48.768;18.608;2023-03-11T04:37:29;96240.59;;;5.20
11926;BMP180;6022;48.768;18.608;2023-03-11T04:39:57;96232.53;;;5.05
11926;BMP180;6022;48.768;18.608;2023-03-11T04:42:26;96239.03;;;5.08
11926;BMP180;6022;48.768;18.608;2023-03-11T04:44:53;96235.28;;;5.02
11926;BMP180;6022;48.768;18.608;2023-03-11T04:47:21;96238.34;;;5.06
11926;BMP180;6022;48.768;18.608;2023-03-11T04:49:49;96244.97;;;4.96
11926;BMP180;6022;48.768;18.608;2023-03-11T04:52:17;96239.72;;;4.88
11926;BMP180;6022;48.768;18.608;2023-03-11T04:54:46;96253.66;;;4.92
11926;BMP180;6022;48.768;18.608;2023-03-11T04:57:14;96244.97;;;4.96
11926;BMP180;6022;48.768;18.608;2023-03-11T04:59:41;96238.47;;;4.83
11926;BMP180;6022;48.768;18.608;2023-03-11T05:02:09;96242.50;;;4.85
11926;BMP180;6022;48.768;18.608;2023-03-11T05:04:39;96242.25;;;4.77
11926;BMP180;6022;48.768;18.608;2023-03-11T05:07:07;96239.03;;;4.75
11926;BMP180;6022;48.768;18.608;2023-03-11T05:09:34;96251.16;;;4.70
11926;BMP180;6022;48.768;18.608;2023-03-11T05:12:02;96266.44;;;4.78
11926;BMP180;6022;48.768;18.608;2023-03-11T05:14:30;96273.41;;;4.75
11926;BMP180;6022;48.768;18.608;2023-03-11T05:16:58;96253.19;;;4.65
11926;BMP180;6022;48.768;18.608;2023-03-11T05:19:26;96267.56;;;4.52
11926;BMP180;6022;48.768;18.608;2023-03-11T05:21:57;96288.31;;;4.54
11926;BMP180;6022;48.768;18.608;2023-03-11T05:24:25;96290.84;;;4.54
11926;BMP180;6022;48.768;18.608;2023-03-11T05:26:53;96276.25;;;4.59
11926;BMP180;6022;48.768;18.608;2023-03-11T05:29:21;96289.25;;;4.53
11926;BMP180;6022;48.768;18.608;2023-03-11T05:31:49;96281.16;;;4.50
11926;BMP180;6022;48.768;18.608;2023-03-11T05:34:17;96288.06;;;4.25
11926;BMP180;6022;48.768;18.608;2023-03-11T05:36:45;96296.16;;;4.28
11926;BMP180;6022;48.768;18.608;2023-03-11T05:39:13;96293.38;;;4.10
11926;BMP180;6022;48.768;18.608;2023-03-11T05:41:40;96315.84;;;4.11
11926;BMP180;6022;48.768;18.608;2023-03-11T05:44:08;96313.41;;;3.99
11926;BMP180;6022;48.768;18.608;2023-03-11T05:46:36;96310.78;;;4.00
11926;BMP180;6022;48.768;18.608;2023-03-11T05:49:04;96321.81;;;3.98
11926;BMP180;6022;48.768;18.608;2023-03-11T05:51:31;96317.09;;;4.16
11926;BMP180;6022;48.768;18.608;2023-03-11T05:54:01;96319.03;;;4.13
11926;BMP180;6022;48.768;18.608;2023-03-11T05:56:29;96314.19;;;3.99
11926;BMP180;6022;48.768;18.608;2023-03-11T05:59:12;96312.59;;;3.98
11926;BMP180;6022;48.768;18.608;2023-03-11T06:01:43;96317.69;;;3.97
11926;BMP180;6022;48.768;18.608;2023-03-11T06:04:11;96316.50;;;3.79
11926;BMP180;6022;48.768;18.608;2023-03-11T06:06:40;96312.13;;;3.70
11926;BMP180;6022;48.768;18.608;2023-03-11T06:09:13;96319.34;;;3.75
11926;BMP180;6022;48.768;18.608;2023-03-11T06:11:41;96329.41;;;3.62
11926;BMP180;6022;48.768;18.608;2023-03-11T06:14:13;96314.63;;;3.47
11926;BMP180;6022;48.768;18.608;2023-03-11T06:16:41;96317.84;;;3.37
11926;BMP180;6022;48.768;18.608;2023-03-11T06:19:09;96330.50;;;3.35
11926;BMP180;6022;48.768;18.608;2023-03-11T06:21:41;96337.38;;;3.44
11926;BMP180;6022;48.768;18.608;2023-03-11T06:24:12;96327.69;;;3.39
11926;BMP180;6022;48.768;18.608;2023-03-11T06:27:03;96328.47;;;3.40
11926;BMP180;6022;48.768;18.608;2023-03-11T06:29:30;96342.72;;;3.27
11926;BMP180;6022;48.768;18.608;2023-03-11T06:31:58;96349.63;;;3.36
11926;BMP180;6022;48.768;18.608;2023-03-11T06:34:26;96358.09;;;3.46
11926;BMP180;6022;48.768;18.608;2023-03-11T06:36:54;96356.94;;;3.39
11926;BMP180;6022;48.768;18.608;2023-03-11T06:39:22;96359.53;;;3.38
11926;BMP180;6022;48.768;18.608;2023-03-11T06:41:54;96359.38;;;3.28
11926;BMP180;6022;48.768;18.608;2023-03-11T06:44:22;96359.84;;;3.33
11926;BMP180;6022;48.768;18.608;2023-03-11T06:46:58;96370.97;;;3.29
11926;BMP180;6022;48.768;18.608;2023-03-11T06:49:26;96375.97;;;3.29
11926;BMP180;6022;48.768;18.608;2023-03-11T06:51:57;96379.78;;;3.35
11926;BMP180;6022;48.768;18.608;2023-03-11T06:54:28;96399.53;;;3.39
11926;BMP180;6022;48.768;18.608;2023-03-11T06:56:56;96399.13;;;3.33
11926;BMP180;6022;48.768;18.608;2023-03-11T06:59:23;96412.44;;;3.33
11926;BMP180;6022;48.768;18.608;2023-03-11T07:01:51;96416.75;;;3.43
11926;BMP180;6022;48.768;18.608;2023-03-11T07:04:19;96419.84;;;3.47
11926;BMP180;6022;48.768;18.608;2023-03-11T07:06:50;96416.25;;;3.51
11926;BMP180;6022;48.768;18.608;2023-03-11T07:09:17;96419.03;;;3.59
11926;BMP180;6022;48.768;18.608;2023-03-11T07:11:55;96416.44;;;3.48
11926;BMP180;6022;48.768;18.608;2023-03-11T07:14:28;96418.97;;;3.36
11926;BMP180;6022;48.768;18.608;2023-03-11T07:17:13;96426.06;;;3.41
11926;BMP180;6022;48.768;18.608;2023-03-11T07:24:25;96422.31;;;3.59
11926;BMP180;6022;48.768;18.608;2023-03-11T07:27:15;96429.88;;;3.47
11926;BMP180;6022;48.768;18.608;2023-03-11T07:29:43;96431.88;;;3.42
11926;BMP180;6022;48.768;18.608;2023-03-11T07:32:15;96427.75;;;3.53
11926;BMP180;6022;48.768;18.608;2023-03-11T07:34:43;96436.84;;;3.67
11926;BMP180;6022;48.768;18.608;2023-03-11T07:37:11;96430.78;;;3.81
11926;BMP180;6022;48.768;18.608;2023-03-11T07:39:42;96436.38;;;3.49
11926;BMP180;6022;48.768;18.608;2023-03-11T07:42:10;96456.97;;;3.77
11926;BMP180;6022;48.768;18.608;2023-03-11T07:44:40;96450.47;;;3.75
11926;BMP180;6022;48.768;18.608;2023-03-11T07:47:08;96471.91;;;3.91
11926;BMP180;6022;48.768;18.608;2023-03-11T07:49:36;96469.09;;;3.83
11926;BMP180;6022;48.768;18.608;2023-03-11T07:52:03;96466.91;;;3.67
11926;BMP180;6022;48.768;18.608;2023-03-11T07:54:31;96466.53;;;3.73
11926;BMP180;6022;48.768;18.608;2023-03-11T07:57:01;96481.56;;;3.73
11926;BMP180;6022;48.768;18.608;2023-03-11T07:59:29;96481.84;;;3.80
11926;BMP180;6022;48.768;18.608;2023-03-11T08:01:57;96485.25;;;3.79
11926;BMP180;6022;48.768;18.608;2023-03-11T08:04:24;96491.75;;;3.94
11926;BMP180;6022;48.768;18.608;2023-03-11T08:06:52;96495.38;;;3.90
11926;BMP180;6022;48.768;18.608;2023-03-11T08:09:20;96492.16;;;3.88
11926;BMP180;6022;48.768;18.608;2023-03-11T08:11:47;96491.69;;;3.71
11926;BMP180;6022;48.768;18.608;2023-03-11T08:14:16;96493.50;;;3.69
11926;BMP180;6022;48.768;18.608;2023-03-11T08:16:43;96506.13;;;3.80
11926;BMP180;6022;48.768;18.608;2023-03-11T08:19:13;96496.16;;;3.91
11926;BMP180;6022;48.768;18.608;2023-03-11T08:21:40;96506.00;;;3.81
11926;BMP180;6022;48.768;18.608;2023-03-11T08:24:11;96511.84;;;3.82
11926;BMP180;6022;48.768;18.608;2023-03-11T08:26:39;96506.44;;;3.63
11926;BMP180;6022;48.768;18.608;2023-03-11T08:29:07;96514.84;;;3.62
11926;BMP180;6022;48.768;18.608;2023-03-11T08:31:35;96522.56;;;3.72
11926;BMP180;6022;48.768;18.608;2023-03-11T08:34:09;96519.16;;;3.85
11926;BMP180;6022;48.768;18.608;2023-03-11T08:36:36;96518.25;;;3.74
11926;BMP180;6022;48.768;18.608;2023-03-11T08:39:04;96519.88;;;3.75
11926;BMP180;6022;48.768;18.608;2023-03-11T08:41:32;96525.69;;;3.63
11926;BMP180;6022;48.768;18.608;2023-03-11T08:43:59;96532.31;;;3.64
11926;BMP180;6022;48.768;18.608;2023-03-11T08:46:37;96533.28;;;3.74
11926;BMP180;6022;48.768;18.608;2023-03-11T08:49:05;96531.06;;;3.81
11926;BMP180;6022;48.768;18.608;2023-03-11T08:51:34;96522.56;;;3.84
11926;BMP180;6022;48.768;18.608;2023-03-11T08:54:03;96533.63;;;3.69
11926;BMP180;6022;48.768;18.608;2023-03-11T08:56:30;96527.19;;;3.65
11926;BMP180;6022;48.768;18.608;2023-03-11T08:58:58;96532.69;;;3.82
11926;BMP180;6022;48.768;18.608;2023-03-11T09:01:25;96538.13;;;3.64
11926;BMP180;6022;48.768;18.608;2023-03-11T09:03:53;96534.13;;;3.62
11926;BMP180;6022;48.768;18.608;2023-03-11T09:06:21;96535.00;;;3.61
11926;BMP180;6022;48.768;18.608;2023-03-11T09:08:49;96542.53;;;3.36
11926;BMP180;6022;48.768;18.608;2023-03-11T09:11:17;96542.53;;;3.36
11926;BMP180;6022;48.768;18.608;2023-03-11T09:13:45;96546.44;;;3.40
11926;BMP180;6022;48.768;18.608;2023-03-11T09:16:21;96538.22;;;3.26
11926;BMP180;6022;48.768;18.608;2023-03-11T09:18:49;96544.50;;;3.31
11926;BMP180;6022;48.768;18.608;2023-03-11T09:21:17;96537.09;;;3.17
11926;BMP180;6022;48.768;18.608;2023-03-11T09:23:47;96555.94;;;3.23
11926;BMP180;6022;48.768;18.608;2023-03-11T09:26:15;96554.75;;;3.28
11926;BMP180;6022;48.768;18.608;2023-03-11T09:28:43;96562.19;;;3.54
11926;BMP180;6022;48.768;18.608;2023-03-11T09:31:18;96579.63;;;3.56
11926;BMP180;6022;48.768;18.608;2023-03-11T09:33:51;96578.72;;;3.69
11926;BMP180;6022;48.768;18.608;2023-03-11T09:36:22;96574.78;;;4.02
11926;BMP180;6022;48.768;18.608;2023-03-11T09:38:52;96576.91;;;3.83
11926;BMP180;6022;48.768;18.608;2023-03-11T09:44:37;96577.31;;;3.77
11926;BMP180;6022;48.768;18.608;2023-03-11T09:47:31;96585.06;;;3.75
11926;BMP180;6022;48.768;18.608;2023-03-11T09:50:29;96590.84;;;3.63
11926;BMP180;6022;48.768;18.608;2023-03-11T09:53:44;96596.56;;;3.89
11926;BMP180;6022;48.768;18.608;2023-03-11T09:56:19;96605.09;;;3.75
11926;BMP180;6022;48.768;18.608;2023-03-11T09:58:55;96598.56;;;3.60
11926;BMP180;6022;48.768;18.608;2023-03-11T10:01:34;96603.47;;;3.49
11926;BMP180;6022;48.768;18.608;2023-03-11T10:04:17;96601.84;;;3.48
11926;BMP180;6022;48.768;18.608;2023-03-11T10:07:00;96614.50;;;3.59
11926;BMP180;6022;48.768;18.608;2023-03-11T10:09:56;96621.53;;;3.66
11926;BMP180;6022;48.768;18.608;2023-03-11T10:26:56;96670.47;;;3.72
11926;BMP180;6022;48.768;18.608;2023-03-11T10:29:51;96661.00;;;3.63
11926;BMP180;6022;48.768;18.608;2023-03-11T10:32:46;96673.06;;;3.58
11926;BMP180;6022;48.768;18.608;2023-03-11T10:35:26;96686.13;;;3.87
11926;BMP180;6022;48.768;18.608;2023-03-11T10:38:21;96684.41;;;3.75
11926;BMP180;6022;48.768;18.608;2023-03-11T10:40:54;96700.59;;;3.84
11926;BMP180;6022;48.768;18.608;2023-03-11T10:43:44;96703.56;;;3.89
11926;BMP180;6022;48.768;18.608;2023-03-11T10:46:24;96722.53;;;3.93
11926;BMP180;6022;48.768;18.608;2023-03-11T10:48:52;96708.28;;;3.81
11926;BMP180;6022;48.768;18.608;2023-03-11T10:51:26;96717.63;;;3.91
11926;BMP180;6022;48.768;18.608;2023-03-11T10:53:56;96723.63;;;3.76
11926;BMP180;6022;48.768;18.608;2023-03-11T10:56:39;96729.66;;;3.86
11926;BMP180;6022;48.768;18.608;2023-03-11T11:00:06;96728.75;;;3.87
11926;BMP180;6022;48.768;18.608;2023-03-11T11:02:26;96740.09;;;3.80
11926;BMP180;6022;48.768;18.608;2023-03-11T11:07:51;96749.63;;;3.88
11926;BMP180;6022;48.768;18.608;2023-03-11T11:10:29;96749.72;;;3.86
11926;BMP180;6022;48.768;18.608;2023-03-11T11:15:39;96758.13;;;3.85
11926;BMP180;6022;48.768;18.608;2023-03-11T11:20:58;96759.94;;;3.83
11926;BMP180;6022;48.768;18.608;2023-03-11T11:23:49;96763.56;;;3.92
11926;BMP180;6022;48.768;18.608;2023-03-11T11:26:28;96769.97;;;3.83
11926;BMP180;6022;48.768;18.608;2023-03-11T11:31:38;96769.69;;;4.00
11926;BMP180;6022;48.768;18.608;2023-03-11T11:34:33;96788.03;;;4.27
11926;BMP180;6022;48.768;18.608;2023-03-11T11:37:05;96784.47;;;4.17
11926;BMP180;6022;48.768;18.608;2023-03-11T11:42:43;96772.47;;;4.34
11926;BMP180;6022;48.768;18.608;2023-03-11T11:45:23;96795.16;;;4.57
11926;BMP180;6022;48.768;18.608;2023-03-11T11:47:59;96780.63;;;4.62
11926;BMP180;6022;48.768;18.608;2023-03-11T11:50:36;96788.22;;;4.49
11926;BMP180;6022;48.768;18.608;2023-03-11T11:53:23;96782.72;;;4.68
11926;BMP180;6022;48.768;18.608;2023-03-11T11:55:54;96785.81;;;4.59
11926;BMP180;6022;48.768;18.608;2023-03-11T11:58:21;96794.97;;;4.60
11926;BMP180;6022;48.768;18.608;2023-03-11T12:04:18;96800.78;;;4.86
11926;BMP180;6022;48.768;18.608;2023-03-11T12:18:19;96810.97;;;4.21
11926;BMP180;6022;48.768;18.608;2023-03-11T12:20:59;96819.25;;;4.35
11926;BMP180;6022;48.768;18.608;2023-03-11T12:26:34;96805.50;;;4.41
11926;BMP180;6022;48.768;18.608;2023-03-11T12:31:45;96812.91;;;4.30
11926;BMP180;6022;48.768;18.608;2023-03-11T12:34:15;96819.25;;;4.35
11926;BMP180;6022;48.768;18.608;2023-03-11T12:36:47;96813.91;;;4.40
11926;BMP180;6022;48.768;18.608;2023-03-11T12:39:33;96821.34;;;4.41
11926;BMP180;6022;48.768;18.608;2023-03-11T12:44:38;96820.81;;;4.24
11926;BMP180;6022;48.768;18.608;2023-03-11T12:49:43;96822.81;;;4.19
11926;BMP180;6022;48.768;18.608;2023-03-11T13:00:19;96816.81;;;4.21
11926;BMP180;6022;48.768;18.608;2023-03-11T13:08:51;96844.34;;;4.35
11926;BMP180;6022;48.768;18.608;2023-03-11T13:16:48;96873.75;;;4.07
11926;BMP180;6022;48.768;18.608;2023-03-11T13:21:58;96890.22;;;4.11
11926;BMP180;6022;48.768;18.608;2023-03-11T13:41:01;96933.97;;;4.07
11926;BMP180;6022;48.768;18.608;2023-03-11T13:43:29;96941.78;;;4.03
11926;BMP180;6022;48.768;18.608;2023-03-11T13:46:37;96932.72;;;4.00
11926;BMP180;6022;48.768;18.608;2023-03-11T13:52:01;96957.72;;;4.02
11926;BMP180;6022;48.768;18.608;2023-03-11T13:54:57;96961.47;;;3.95
11926;BMP180;6022;48.768;18.608;2023-03-11T13:57:33;96966.56;;;4.07
11926;BMP180;6022;48.768;18.608;2023-03-11T14:00:25;96969.78;;;4.09
11926;BMP180;6022;48.768;18.608;2023-03-11T14:03:01;96967.97;;;3.85
11926;BMP180;6022;48.768;18.608;2023-03-11T14:05:35;96979.31;;;3.90
11926;BMP180;6022;48.768;18.608;2023-03-11T14:08:19;96992.91;;;4.00
11926;BMP180;6022;48.768;18.608;2023-03-11T14:11:16;96998.84;;;3.99
11926;BMP180;6022;48.768;18.608;2023-03-11T14:13:49;97007.72;;;3.91
11926;BMP180;6022;48.768;18.608;2023-03-11T14:16:30;97004.78;;;3.71
11926;BMP180;6022;48.768;18.608;2023-03-11T14:19:05;97019.19;;;3.81
11926;BMP180;6022;48.768;18.608;2023-03-11T14:21:46;97023.31;;;3.82
11926;BMP180;6022;48.768;18.608;2023-03-11T14:24:24;97031.44;;;3.85
11926;BMP180;6022;48.768;18.608;2023-03-11T14:26:56;97036.09;;;3.77
11926;BMP180;6022;48.768;18.608;2023-03-11T14:29:35;97049.56;;;3.76
11926;BMP180;6022;48.768;18.608;2023-03-11T14:32:29;97055.63;;;3.45
11926;BMP180;6022;48.768;18.608;2023-03-11T14:34:57;97067.44;;;3.43
11926;BMP180;6022;48.768;18.608;2023-03-11T14:37:33;97075.97;;;3.25
11926;BMP180;6022;48.768;18.608;2023-03-11T14:40:02;97071.47;;;3.16
11926;BMP180;6022;48.768;18.608;2023-03-11T14:42:39;97074.88;;;3.29
11926;BMP180;6022;48.768;18.608;2023-03-11T14:45:17;97084.31;;;3.26
11926;BMP180;6022;48.768;18.608;2023-03-11T14:50:30;97082.84;;;3.22
11926;BMP180;6022;48.768;18.608;2023-03-11T14:53:24;97081.16;;;3.22
11926;BMP180;6022;48.768;18.608;2023-03-11T14:56:00;97092.47;;;3.14
11926;BMP180;6022;48.768;18.608;2023-03-11T14:58:36;97091.97;;;3.23
11926;BMP180;6022;48.768;18.608;2023-03-11T15:01:28;97094.41;;;3.24
11926;BMP180;6022;48.768;18.608;2023-03-11T15:06:32;97089.13;;;3.00
11926;BMP180;6022;48.768;18.608;2023-03-11T15:09:07;97105.78;;;2.85
11926;BMP180;6022;48.768;18.608;2023-03-11T15:14:34;97109.16;;;2.84
11926;BMP180;6022;48.768;18.608;2023-03-11T15:17:22;97108.38;;;2.68
11926;BMP180;6022;48.768;18.608;2023-03-11T15:20:34;97108.84;;;2.75
11926;BMP180;6022;48.768;18.608;2023-03-11T15:23:20;97117.31;;;2.88
11926;BMP180;6022;48.768;18.608;2023-03-11T15:25:51;97119.91;;;2.86
11926;BMP180;6022;48.768;18.608;2023-03-11T15:28:29;97120.53;;;2.90
11926;BMP180;6022;48.768;18.608;2023-03-11T15:33:51;97121.63;;;2.70
11926;BMP180;6022;48.768;18.608;2023-03-11T15:36:35;97130.91;;;2.68
11926;BMP180;6022;48.768;18.608;2023-03-11T15:39:17;97140.19;;;2.66
11926;BMP180;6022;48.768;18.608;2023-03-11T15:44:35;97147.78;;;2.65
11926;BMP180;6022;48.768;18.608;2023-03-11T15:47:03;97150.94;;;2.68
11926;BMP180;6022;48.768;18.608;2023-03-11T15:49:32;97148.91;;;2.60
11926;BMP180;6022;48.768;18.608;2023-03-11T15:52:01;97145.84;;;2.55
11926;BMP180;6022;48.768;18.608;2023-03-11T15:54:28;97156.06;;;2.50
11926;BMP180;6022;48.768;18.608;2023-03-11T15:57:04;97142.44;;;2.40
11926;BMP180;6022;48.768;18.608;2023-03-11T15:59:34;97159.16;;;2.55
11926;BMP180;6022;48.768;18.608;2023-03-11T16:02:02;97175.78;;;2.56
11926;BMP180;6022;48.768;18.608;2023-03-11T16:04:29;97170.94;;;2.53
11926;BMP180;6022;48.768;18.608;2023-03-11T16:06:57;97184.50;;;2.49
11926;BMP180;6022;48.768;18.608;2023-03-11T16:09:34;97176.09;;;2.50
11926;BMP180;6022;48.768;18.608;2023-03-11T16:12:10;97183.00;;;2.62
11926;BMP180;6022;48.768;18.608;2023-03-11T16:14:39;97195.84;;;2.71
11926;BMP180;6022;48.768;18.608;2023-03-11T16:17:07;97203.97;;;2.75
11926;BMP180;6022;48.768;18.608;2023-03-11T16:19:34;97205.41;;;2.79
11926;BMP180;6022;48.768;18.608;2023-03-11T16:22:02;97202.38;;;2.74
11926;BMP180;6022;48.768;18.608;2023-03-11T16:24:30;97212.78;;;2.82
11926;BMP180;6022;48.768;18.608;2023-03-11T16:26:58;97213.50;;;2.84
11926;BMP180;6022;48.768;18.608;2023-03-11T16:29:25;97214.97;;;2.88
11926;BMP180;6022;48.768;18.608;2023-03-11T16:31:59;97224.97;;;2.88
11926;BMP180;6022;48.768;18.608;2023-03-11T16:34:26;97219.41;;;2.83
11926;BMP180;6022;48.768;18.608;2023-03-11T16:36:57;97229.66;;;2.78
11926;BMP180;6022;48.768;18.608;2023-03-11T16:39:24;97236.78;;;2.86
11926;BMP180;6022;48.768;18.608;2023-03-11T16:41:52;97228.38;;;2.87
11926;BMP180;6022;48.768;18.608;2023-03-11T16:44:19;97235.47;;;2.79
11926;BMP180;6022;48.768;18.608;2023-03-11T16:46:46;97234.09;;;2.73
11926;BMP180;6022;48.768;18.608;2023-03-11T16:49:13;97240.78;;;2.73
11926;BMP180;6022;48.768;18.608;2023-03-11T16:51:41;97246.78;;;2.70
11926;BMP180;6022;48.768;18.608;2023-03-11T16:54:08;97253.94;;;2.61